createdAt,value
2022-11-23T00:01:25.318Z,7.37
2022-11-23T00:05:28.306Z,7.44
2022-11-23T00:09:30.312Z,7.45
2022-11-23T00:13:32.270Z,7.47
2022-11-23T00:17:33.886Z,7.50
2022-11-23T00:21:35.460Z,7.48
2022-11-23T00:25:36.997Z,7.47
2022-11-23T00:29:38.483Z,7.44
2022-11-23T00:33:41.128Z,7.37
2022-11-23T00:37:42.660Z,7.36
2022-11-23T00:41:45.836Z,7.32
2022-11-23T00:45:49.393Z,7.27
2022-11-23T00:49:50.893Z,7.23
2022-11-23T00:53:53.199Z,7.19
2022-11-23T00:57:54.827Z,7.16
2022-11-23T01:01:56.594Z,7.14
2022-11-23T01:06:07.215Z,7.11
2022-11-23T01:10:08.895Z,7.14
2022-11-23T01:14:10.812Z,7.16
2022-11-23T01:18:14.872Z,7.21
2022-11-23T01:22:16.543Z,7.23
2022-11-23T01:26:18.432Z,7.24
2022-11-23T01:30:20.021Z,7.26
2022-11-23T01:34:21.584Z,7.27
2022-11-23T01:38:25.020Z,7.27
2022-11-23T01:42:43.121Z,7.30
2022-11-23T01:46:44.671Z,7.33
2022-11-23T01:50:49.862Z,7.34
2022-11-23T01:54:54.770Z,7.37
2022-11-23T01:59:01.964Z,7.39
2022-11-23T02:03:05.268Z,7.41
2022-11-23T02:07:07.914Z,7.44
2022-11-23T02:11:11.648Z,7.47
2022-11-23T02:15:13.348Z,7.50
2022-11-23T02:19:40.327Z,7.51
2022-11-23T02:24:07.446Z,7.52
2022-11-23T02:28:15.816Z,7.52
2022-11-23T02:32:23.967Z,7.55
2022-11-23T02:36:34.125Z,7.57
2022-11-23T02:40:39.694Z,7.60
2022-11-23T02:45:01.907Z,7.60
2022-11-23T02:49:03.874Z,7.62
2022-11-23T02:53:05.461Z,7.62
2022-11-23T02:57:07.869Z,7.63
2022-11-23T03:01:09.587Z,7.66
2022-11-23T03:05:11.197Z,7.66
2022-11-23T03:09:12.734Z,7.66
2022-11-23T03:13:14.571Z,7.66
2022-11-23T03:17:16.172Z,7.67
2022-11-23T03:21:19.670Z,7.67
2022-11-23T03:25:21.362Z,7.67
2022-11-23T03:29:26.567Z,7.69
2022-11-23T03:33:29.960Z,7.70
2022-11-23T03:37:32.072Z,7.71
2022-11-23T03:41:33.691Z,7.71
2022-11-23T03:45:35.225Z,7.70
2022-11-23T03:49:36.828Z,7.71
2022-11-23T03:53:38.647Z,7.73
2022-11-23T03:57:40.386Z,7.74
2022-11-23T04:01:42.135Z,7.76
2022-11-23T04:05:50.445Z,7.76
2022-11-23T04:10:24.230Z,7.77
2022-11-23T04:14:41.487Z,7.77
2022-11-23T04:18:43.023Z,7.79
2022-11-23T04:22:45.452Z,7.81
2022-11-23T04:26:47.159Z,7.82
2022-11-23T04:30:49.576Z,7.82
2022-11-23T04:34:53.496Z,7.84
2022-11-23T04:38:55.409Z,7.84
2022-11-23T04:43:06.951Z,7.84
2022-11-23T04:47:11.386Z,7.85
2022-11-23T04:51:13.946Z,7.86
2022-11-23T04:55:16.815Z,7.86
2022-11-23T04:59:29.397Z,7.88
2022-11-23T05:03:36.055Z,7.91
2022-11-23T05:07:41.308Z,7.91
2022-11-23T05:11:44.233Z,7.91
2022-11-23T05:15:45.896Z,7.89
2022-11-23T05:19:51.955Z,7.89
2022-11-23T05:23:54.592Z,7.89
2022-11-23T05:27:56.506Z,7.88
2022-11-23T05:31:58.132Z,7.89
2022-11-23T05:35:59.812Z,7.89
2022-11-23T05:40:11.567Z,7.89
2022-11-23T05:44:13.949Z,7.89
2022-11-23T05:48:15.823Z,7.91
2022-11-23T05:52:27.151Z,7.91
2022-11-23T05:56:28.934Z,7.89
2022-11-23T06:00:39.238Z,7.89
2022-11-23T06:04:43.026Z,7.86
2022-11-23T06:08:49.258Z,7.88
2022-11-23T06:12:52.782Z,7.88
2022-11-23T06:16:56.749Z,7.86
2022-11-23T06:21:18.306Z,7.86
2022-11-23T06:25:21.046Z,7.85
2022-11-23T06:29:38.467Z,7.84
2022-11-23T06:33:40.128Z,7.82
2022-11-23T06:37:41.850Z,7.77
2022-11-23T06:41:43.388Z,7.69
2022-11-23T06:45:45.124Z,7.57
2022-11-23T06:49:49.722Z,7.50
2022-11-23T06:54:00.043Z,7.45
2022-11-23T06:58:02.052Z,7.36
2022-11-23T07:02:04.145Z,7.27
2022-11-23T07:06:10.676Z,7.19
2022-11-23T07:10:13.607Z,7.11
2022-11-23T07:14:24.806Z,7.04
2022-11-23T07:18:27.085Z,6.99
2022-11-23T07:22:33.781Z,6.93
2022-11-23T07:26:35.412Z,6.90
2022-11-23T07:30:38.832Z,6.86
2022-11-23T07:34:40.765Z,6.86
2022-11-23T07:38:43.353Z,6.83
2022-11-23T07:42:46.779Z,6.83
2022-11-23T07:46:53.104Z,6.83
2022-11-23T07:50:55.094Z,6.89
2022-11-23T07:54:56.845Z,6.91
2022-11-23T07:58:58.358Z,6.94
2022-11-23T08:07:21.495Z,6.99
2022-11-23T08:11:23.079Z,7.01
2022-11-23T08:15:25.588Z,7.08
2022-11-23T08:19:27.261Z,7.14
2022-11-23T08:23:29.147Z,7.18
2022-11-23T08:27:30.766Z,7.23
2022-11-23T08:31:32.905Z,7.27
2022-11-23T08:35:38.470Z,7.32
2022-11-23T08:39:39.961Z,7.36
2022-11-23T08:43:41.547Z,7.44
2022-11-23T08:47:43.082Z,7.48
2022-11-23T08:51:49.907Z,7.52
2022-11-23T08:55:52.142Z,7.60
2022-11-23T08:59:53.770Z,7.66
2022-11-23T09:03:55.310Z,7.73
2022-11-23T09:08:00.206Z,7.77
2022-11-23T09:12:01.725Z,7.82
2022-11-23T09:16:05.117Z,7.89
2022-11-23T09:20:07.289Z,7.89
2022-11-23T09:24:12.495Z,7.94
2022-11-23T09:28:14.932Z,8.00
2022-11-23T09:32:16.557Z,8.04
2022-11-23T09:36:18.062Z,8.17
2022-11-23T09:40:19.647Z,8.25
2022-11-23T09:44:53.019Z,8.31
2022-11-23T09:49:01.175Z,8.45
2022-11-23T09:53:10.747Z,8.55
2022-11-23T09:57:18.392Z,8.64
2022-11-23T10:01:20.383Z,8.70
2022-11-23T10:05:27.368Z,8.75
2022-11-23T10:09:45.847Z,8.83
2022-11-23T10:14:08.207Z,8.96
2022-11-23T10:18:32.884Z,9.01
2022-11-23T10:22:59.068Z,9.08
2022-11-23T10:27:01.510Z,9.15
2022-11-23T10:31:18.510Z,9.20
2022-11-23T10:35:27.422Z,9.38
2022-11-23T10:39:29.005Z,9.48
2022-11-23T10:44:16.287Z,9.60
2022-11-23T10:48:35.632Z,9.67
2022-11-23T10:52:37.227Z,9.63
2022-11-23T10:56:46.938Z,9.75
2022-11-23T11:00:59.556Z,9.81
2022-11-23T11:05:53.487Z,9.81
2022-11-23T11:10:01.210Z,9.81
2022-11-23T11:14:24.809Z,9.85
2022-11-23T11:18:30.088Z,9.88
2022-11-23T11:22:36.490Z,9.91
2022-11-23T11:26:49.273Z,9.99
2022-11-23T11:31:09.425Z,10.02
2022-11-23T11:35:23.194Z,10.07
2022-11-23T11:39:32.500Z,10.10
2022-11-23T11:43:49.120Z,10.16
2022-11-23T11:48:03.041Z,10.22
2022-11-23T11:52:10.744Z,10.28
2022-11-23T11:56:36.270Z,10.32
2022-11-23T12:00:44.848Z,10.43
2022-11-23T12:04:50.000Z,10.47
2022-11-23T12:09:02.498Z,10.58
2022-11-23T12:13:04.525Z,10.63
2022-11-23T12:17:33.720Z,10.66
2022-11-23T12:21:56.965Z,10.69
2022-11-23T12:26:25.486Z,10.72
2022-11-23T12:30:36.111Z,10.76
2022-11-23T12:35:18.713Z,10.80
2022-11-23T12:39:29.875Z,10.88
2022-11-23T12:44:00.594Z,10.98
2022-11-23T12:48:33.015Z,10.98
2022-11-23T12:52:49.705Z,11.01
2022-11-23T12:56:56.153Z,11.05
2022-11-23T13:01:19.077Z,11.09
2022-11-23T13:05:47.561Z,11.11
2022-11-23T13:10:01.047Z,11.12
2022-11-23T13:14:48.209Z,11.16
2022-11-23T13:19:31.002Z,11.20
2022-11-23T13:23:38.268Z,11.17
2022-11-23T13:27:48.791Z,11.12
2022-11-23T13:32:29.151Z,11.09
2022-11-23T13:36:56.483Z,11.08
2022-11-23T13:40:52.167Z,11.03
2022-11-23T13:45:21.506Z,11.03
2022-11-23T13:49:42.362Z,11.01
2022-11-23T13:53:52.659Z,10.94
2022-11-23T13:58:32.735Z,10.90
2022-11-23T14:02:34.505Z,10.87
2022-11-23T14:06:56.829Z,10.81
2022-11-23T14:10:59.839Z,10.80
2022-11-23T14:15:20.120Z,10.76
2022-11-23T14:19:38.904Z,10.73
2022-11-23T14:23:58.926Z,10.69
2022-11-23T14:28:25.232Z,10.68
2022-11-23T14:32:41.932Z,10.66
2022-11-23T14:36:50.480Z,10.62
2022-11-23T14:41:07.202Z,10.52
2022-11-23T14:45:13.807Z,10.46
2022-11-23T14:49:15.655Z,10.39
2022-11-23T14:53:17.232Z,10.32
2022-11-23T14:57:21.905Z,10.26
2022-11-23T15:01:26.008Z,10.18
2022-11-23T15:05:31.395Z,10.14
2022-11-23T15:09:49.941Z,10.09
2022-11-23T15:13:55.214Z,10.02
2022-11-23T15:17:59.053Z,10.01
2022-11-23T15:22:00.709Z,10.01
2022-11-23T15:26:46.129Z,9.99
2022-11-23T15:30:43.407Z,9.98
2022-11-23T15:34:46.240Z,9.98
2022-11-23T15:38:48.185Z,9.96
2022-11-23T15:42:51.213Z,9.98
2022-11-23T15:47:01.291Z,9.95
2022-11-23T15:51:05.444Z,9.93
2022-11-23T15:55:12.635Z,9.92
2022-11-23T16:00:09.886Z,9.91
2022-11-23T16:04:36.475Z,9.95
2022-11-23T16:08:40.739Z,9.93
2022-11-23T16:12:50.106Z,9.95
2022-11-23T16:17:00.617Z,9.93
2022-11-23T16:21:04.873Z,9.95
2022-11-23T16:25:18.057Z,9.96
2022-11-23T16:29:30.987Z,9.99
2022-11-23T16:33:33.980Z,10.01
2022-11-23T16:37:35.552Z,10.01
2022-11-23T16:41:37.646Z,10.01
2022-11-23T16:45:41.012Z,10.02
2022-11-23T16:49:42.586Z,10.04
2022-11-23T16:58:12.505Z,10.04
2022-11-23T17:02:15.768Z,10.02
2022-11-23T17:06:18.330Z,10.04
2022-11-23T17:10:19.878Z,9.99
2022-11-23T17:14:28.071Z,9.96
2022-11-23T17:18:30.974Z,9.91
2022-11-23T17:22:32.580Z,9.86
2022-11-23T17:26:37.839Z,9.83
2022-11-23T17:30:39.490Z,9.83
2022-11-23T17:34:41.231Z,9.81
2022-11-23T17:38:46.997Z,9.80
2022-11-23T17:42:48.604Z,9.80
2022-11-23T17:46:51.649Z,9.81
2022-11-23T17:50:53.227Z,9.77
2022-11-23T17:54:54.845Z,9.75
2022-11-23T17:58:56.454Z,9.74
2022-11-23T18:02:58.089Z,9.73
2022-11-23T18:06:59.631Z,9.70
2022-11-23T18:11:01.195Z,9.71
2022-11-23T18:15:02.860Z,9.67
2022-11-23T18:19:04.642Z,9.62
2022-11-23T18:23:06.485Z,9.53
2022-11-23T18:27:08.361Z,9.58
2022-11-23T18:31:10.123Z,9.55
2022-11-23T18:35:11.864Z,9.55
2022-11-23T18:39:13.751Z,9.48
2022-11-23T18:43:15.287Z,9.44
2022-11-23T18:47:16.901Z,9.44
2022-11-23T18:51:18.776Z,9.42
2022-11-23T18:55:20.312Z,9.40
2022-11-23T18:59:56.474Z,9.35
2022-11-23T19:03:46.537Z,9.40
2022-11-23T19:07:49.051Z,9.37
2022-11-23T19:11:51.639Z,9.32
2022-11-23T19:15:53.186Z,9.53
2022-11-23T19:19:54.760Z,9.60
2022-11-23T19:23:57.786Z,9.50
2022-11-23T19:28:00.579Z,9.41
2022-11-23T19:32:02.085Z,9.37
2022-11-23T19:36:08.651Z,9.31
2022-11-23T19:40:12.536Z,9.32
2022-11-23T19:44:14.241Z,9.31
2022-11-23T19:48:15.886Z,9.31
2022-11-23T19:52:17.412Z,9.35
2022-11-23T19:56:23.360Z,9.34
2022-11-23T20:00:28.015Z,9.26
2022-11-23T20:04:30.254Z,9.22
2022-11-23T20:08:31.926Z,9.15
2022-11-23T20:12:33.697Z,9.08
2022-11-23T20:16:35.698Z,9.06
2022-11-23T20:20:45.142Z,9.03
2022-11-23T20:24:46.712Z,8.97
2022-11-23T20:28:53.015Z,8.93
2022-11-23T20:32:54.714Z,8.88
2022-11-23T20:36:56.459Z,8.82
2022-11-23T20:40:58.116Z,8.80
2022-11-23T20:44:59.786Z,8.78
2022-11-23T20:49:01.486Z,8.71
2022-11-23T20:53:03.934Z,8.71
2022-11-23T20:57:05.526Z,8.70
2022-11-23T21:01:09.820Z,8.70
2022-11-23T21:05:12.041Z,8.68
2022-11-23T21:09:13.628Z,8.63
2022-11-23T21:13:48.539Z,8.67
2022-11-23T21:17:51.017Z,8.71
2022-11-23T21:21:53.241Z,8.73
2022-11-23T21:25:54.753Z,8.73
2022-11-23T21:29:56.296Z,8.71
2022-11-23T21:34:05.233Z,8.71
2022-11-23T21:38:06.767Z,8.68
2022-11-23T21:42:08.275Z,8.67
2022-11-23T21:46:11.841Z,8.65
2022-11-23T21:50:13.673Z,8.73
2022-11-23T21:54:15.872Z,8.79
2022-11-23T21:58:17.835Z,8.78
2022-11-23T22:02:19.413Z,8.75
2022-11-23T22:06:21.957Z,8.73
2022-11-23T22:10:23.462Z,8.71
2022-11-23T22:14:25.123Z,8.75
2022-11-23T22:18:27.078Z,8.82
2022-11-23T22:22:28.762Z,8.91
2022-11-23T22:26:30.367Z,9.01
2022-11-23T22:30:31.948Z,9.08
2022-11-23T22:34:35.241Z,9.13
2022-11-23T22:38:37.140Z,9.12
2022-11-23T22:42:38.684Z,9.00
2022-11-23T22:46:40.290Z,8.97
2022-11-23T22:50:41.907Z,8.94
2022-11-23T22:54:43.584Z,8.97
2022-11-23T22:58:46.395Z,8.94
2022-11-23T23:02:48.077Z,8.89
2022-11-23T23:06:50.721Z,8.86
2022-11-23T23:10:53.089Z,8.89
2022-11-23T23:14:54.609Z,8.89
2022-11-23T23:18:57.505Z,8.85
2022-11-23T23:22:59.042Z,8.80
2022-11-23T23:27:00.544Z,8.78
2022-11-23T23:31:07.612Z,8.75
2022-11-23T23:35:09.321Z,8.70
2022-11-23T23:39:12.287Z,8.65
2022-11-23T23:43:13.782Z,8.64
2022-11-23T23:47:15.302Z,8.60
2022-11-23T23:51:21.918Z,8.58
2022-11-23T23:55:23.676Z,8.57
2022-11-23T23:59:25.813Z,8.52
